K5UTD-1 Weather Reports


Display with metric or nautical units.
time (UTC)temp
F
wind
direction
speed
MPH
gust
MPH
rain 1hr
in
rain 24hr
in
rain mn
in
humidity
%
barometer
mb
20190325224015 70 135 7.0 12.0 0.00 0.29 0.10 48 1025.6
20190325223015 70 157 5.0 10.0 0.00 0.29 0.10 48 1025.6
20190325222015 70 180 6.0 9.0 0.00 0.29 0.10 48 1025.6
20190325221015 70 135 5.0 7.0 0.00 0.29 0.10 49 1025.6
20190325220015 69 135 6.0 9.0 0.00 0.29 0.10 49 1025.5
20190325215015 69 180 4.0 11.0 0.00 0.29 0.10 49 1025.5
20190325214015 70 135 4.0 9.0 0.00 0.29 0.10 49 1025.7
20190325213015 70 135 3.0 7.0 0.00 0.29 0.10 49 1025.8
20190325212015 69 180 7.0 11.0 0.00 0.29 0.10 50 1026.0
20190325211015 69 112 7.0 13.0 0.00 0.29 0.10 49 1025.9
20190325210016 69 180 8.0 12.0 0.00 0.29 0.10 50 1025.8
20190325205015 69 180 6.0 10.0 0.00 0.29 0.10 51 1025.9
20190325204015 69 180 11.0 14.0 0.00 0.29 0.10 51 1026.0
20190325203016 68 135 7.0 12.0 0.00 0.29 0.10 54 1026.0
20190325202015 68 180 12.0 18.0 0.00 0.29 0.10 51 1026.2
20190325201015 68 180 10.0 13.0 0.00 0.29 0.10 50 1026.4
20190325200016 68 135 6.0 8.0 0.00 0.29 0.10 51 1026.4
20190325195015 68 135 7.0 10.0 0.00 0.29 0.10 53 1026.6
20190325194015 68 135 7.0 11.0 0.00 0.29 0.10 54 1026.7
20190325193015 67 180 10.0 13.0 0.00 0.29 0.10 55 1026.7
20190325192015 67 112 12.0 21.0 0.00 0.29 0.10 55 1026.7
20190325191016 67 112 5.0 9.0 0.00 0.29 0.10 54 1026.7
20190325190015 67 135 5.0 8.0 0.00 0.29 0.10 56 1026.7
20190325185015 67 135 9.0 19.0 0.00 0.29 0.10 56 1026.8
20190325184016 67 112 6.0 9.0 0.00 0.29 0.10 55 1026.9
20190325183015 67 135 5.0 10.0 0.00 0.29 0.10 56 1027.0
20190325182015 66 157 8.0 14.0 0.00 0.29 0.10 54 1027.1
20190325181016 66 135 7.0 13.0 0.00 0.29 0.10 56 1027.1
20190325180015 66 135 4.0 7.0 0.00 0.29 0.10 56 1027.1
20190325175015 66 135 4.0 8.0 0.00 0.29 0.10 57 1027.3
20190325174015 65 180 10.0 14.0 0.00 0.29 0.10 57 1027.3
20190325173015 65 180 9.0 13.0 0.00 0.29 0.10 56 1027.2
20190325172015 65 112 7.0 12.0 0.00 0.29 0.10 57 1027.3
20190325171015 65 157 5.0 9.0 0.00 0.29 0.10 58 1027.4
20190325170015 64 180 3.0 8.0 0.00 0.29 0.10 58 1027.3
20190325165015 64 135 3.0 7.0 0.00 0.29 0.10 59 1027.3
20190325164116 63 112 6.0 10.0 0.00 0.29 0.10 58 1027.3
20190325163015 63 180 5.0 9.0 0.00 0.29 0.10 61 1027.1
20190325162015 63 157 9.0 13.0 0.00 0.29 0.10 60 1027.1
20190325161015 63 135 7.0 11.0 0.00 0.29 0.10 60 1027.1
20190325160015 62 157 6.0 9.0 0.00 0.29 0.10 61 1026.9
20190325155016 62 135 4.0 8.0 0.00 0.29 0.10 62 1026.7
20190325154016 61 180 4.0 10.0 0.00 0.29 0.10 64 1026.7
20190325153015 61 180 8.0 12.0 0.00 0.29 0.10 63 1026.7
20190325152015 60 157 8.0 13.0 0.00 0.29 0.10 65 1026.4
20190325151015 60 180 6.0 11.0 0.00 0.29 0.10 66 1026.2
20190325150015 60 180 8.0 13.0 0.00 0.29 0.10 66 1025.9
20190325145016 59 180 6.0 13.0 0.00 0.29 0.10 68 1025.8
20190325144015 59 180 10.0 14.0 0.00 0.29 0.10 68 1025.6
20190325143015 58 135 6.0 11.0 0.00 0.29 0.10 70 1025.5
20190325142015 58 157 7.0 12.0 0.00 0.29 0.10 71 1025.3
20190325141015 57 180 8.0 13.0 0.00 0.29 0.10 72 1025.1
20190325140015 57 180 5.0 6.0 0.00 0.29 0.10 73 1024.9
20190325135015 56 180 8.0 12.0 0.00 0.29 0.10 74 1024.8
20190325134016 56 90 4.0 8.0 0.00 0.29 0.10 75 1024.7
20190325133016 55 180 4.0 9.0 0.00 0.29 0.10 76 1024.6
20190325132016 55 180 3.0 5.0 0.00 0.29 0.10 76 1024.3
20190325131015 55 180 5.0 9.0 0.00 0.29 0.10 77 1024.4
20190325130016 55 180 5.0 9.0 0.00 0.29 0.10 78 1024.3
20190325125016 55 180 3.0 6.0 0.00 0.29 0.10 78 1023.9
20190325124015 55 180 2.0 4.0 0.00 0.29 0.10 78 1023.8
20190325123015 55 180 5.0 7.0 0.00 0.29 0.10 78 1023.9
20190325122015 55 180 6.0 7.0 0.00 0.29 0.10 78 1023.9
20190325121015 55 157 4.0 5.0 0.00 0.29 0.10 78 1023.8
20190325120016 55 180 1.0 5.0 0.00 0.29 0.10 78 1023.7
20190325115015 55 180 3.0 5.0 0.00 0.29 0.10 78 1023.4
20190325114015 55 135 4.0 7.0 0.00 0.29 0.10 78 1023.3
20190325113015 56 180 4.0 9.0 0.00 0.29 0.10 78 1023.4
20190325112015 56 180 6.0 9.0 0.00 0.29 0.10 78 1023.2
20190325111015 56 180 5.0 7.0 0.00 0.29 0.10 78 1023.1
20190325110016 56 180 6.0 10.0 0.00 0.29 0.10 78 1023.0
20190325105015 56 180 6.0 10.0 0.00 0.29 0.10 78 1022.8
20190325104016 57 180 7.0 11.0 0.00 0.29 0.10 78 1022.6
20190325103015 57 180 8.0 11.0 0.00 0.29 0.10 78 1022.7
20190325102015 57 180 8.0 13.0 0.00 0.29 0.10 77 1022.6
20190325101016 58 180 9.0 14.0 0.00 0.29 0.10 77 1022.5
20190325100015 58 180 7.0 13.0 0.00 0.29 0.10 76 1022.2
20190325095015 58 180 5.0 9.0 0.00 0.29 0.10 76 1021.9
20190325094016 59 180 6.0 9.0 0.00 0.29 0.10 76 1021.8
20190325093016 59 180 6.0 9.0 0.00 0.29 0.10 77 1021.6
20190325092015 59 180 6.0 8.0 0.00 0.29 0.10 77 1021.4
20190325091015 59 180 4.0 6.0 0.00 0.29 0.10 77 1021.2
20190325090015 59 202 6.0 9.0 0.00 0.29 0.10 78 1021.0
20190325085015 59 180 6.0 10.0 0.00 0.29 0.10 78 1020.9
20190325084016 60 180 7.0 11.0 0.00 0.29 0.10 79 1021.0
20190325083015 60 180 5.0 11.0 0.00 0.29 0.10 79 1020.7
20190325082016 60 180 6.0 10.0 0.00 0.29 0.10 79 1020.6
20190325081016 60 180 7.0 10.0 0.00 0.29 0.10 80 1020.7
20190325080015 61 180 4.0 7.0 0.00 0.29 0.10 80 1020.6
20190325075015 61 180 6.0 10.0 0.00 0.29 0.10 80 1020.6
20190325074015 61 135 7.0 10.0 0.00 0.29 0.10 80 1020.7
20190325073015 62 135 6.0 8.0 0.00 0.29 0.10 81 1020.8
20190325072016 62 180 7.0 16.0 0.00 0.29 0.10 81 1020.8
20190325071016 62 180 9.0 12.0 0.00 0.29 0.10 81 1021.0
20190325070016 62 180 11.0 15.0 0.00 0.29 0.10 82 1021.0
20190325065016 63 135 6.0 12.0 0.00 0.29 0.10 85 1021.1
20190325064015 63 135 6.0 11.0 0.00 0.29 0.10 87 1021.3
20190325063016 64 135 6.0 14.0 0.08 0.29 0.10 89 1021.1
20190325062015 64 135 4.0 7.0 0.08 0.29 0.10 89 1021.0
20190325061015 65 112 3.0 5.0 0.10 0.29 0.10 89 1020.9
20190325060016 65 112 4.0 8.0 0.10 0.29 0.10 90 1020.9
20190325055015 66 112 3.0 4.0 0.10 0.29 0.10 90 1020.9
20190325054016 66 112 4.0 6.0 0.10 0.29 0.10 89 1020.8
20190325053016 67 112 4.0 7.0 0.02 0.21 0.02 89 1020.1
20190325052015 67 0.0 1.0 0.01 0.20 0.01 89 1019.8
20190325051016 67 112 7.0 10.0 0.00 0.19 0.00 89 1020.2
20190325050015 67 112 2.0 4.0 0.00 0.19 0.19 89 1020.2
20190325045016 67 0.0 0.0 0.00 0.19 0.19 90 1020.2
20190325044016 67 112 7.0 9.0 0.02 0.19 0.19 89 1020.5
20190325043015 68 90 3.0 5.0 0.19 0.19 0.19 89 1019.6
20190325042016 67 90 1.0 2.0 0.19 0.19 0.19 88 1019.4
20190325041016 68 0.0 1.0 0.19 0.19 0.19 87 1019.4
20190325040016 68 0.0 2.0 0.19 0.19 0.19 86 1019.6
20190325035015 69 90 1.0 4.0 0.19 0.19 0.19 84 1020.0
20190325034016 71 67 5.0 7.0 0.17 0.17 0.17 77 1020.3
20190325033015 72 0.0 0.0 0.00 0.00 0.00 73 1020.1
20190325032016 72 0.0 0.0 0.00 0.00 0.00 73 1020.0
20190325031016 72 337 1.0 2.0 0.00 0.00 0.00 73 1019.8
20190325030017 72 0.0 1.0 0.00 0.00 0.00 73 1019.4
20190325025016 72 0.0 0.0 0.00 0.00 0.00 73 1019.5
20190325024016 72 337 2.0 3.0 0.00 0.00 0.00 72 1019.3
20190325023016 72 0.0 0.0 0.00 0.00 0.00 72 1019.2
20190325022015 72 0.0 0.0 0.00 0.00 0.00 71 1019.1
20190325021016 73 0.0 0.0 0.00 0.00 0.00 71 1019.0
20190325020015 73 0.0 0.0 0.00 0.00 0.00 71 1018.9
20190325015016 73 0.0 1.0 0.00 0.00 0.00 70 1018.7
20190325014016 73 337 4.0 6.0 0.00 0.00 0.00 69 1018.2
20190325013016 73 315 8.0 11.0 0.00 0.00 0.00 69 1017.9
20190325012016 74 292 6.0 9.0 0.00 0.00 0.00 69 1018.1
20190325011016 74 270 4.0 7.0 0.00 0.00 0.00 69 1018.0
20190325010015 74 247 4.0 8.0 0.00 0.00 0.00 68 1017.9
20190325005016 74 315 7.0 10.0 0.00 0.00 0.00 67 1017.6
20190325004017 75 292 6.0 9.0 0.00 0.00 0.00 67 1017.5
20190325003016 75 270 5.0 8.0 0.00 0.00 0.00 66 1017.7
20190325002016 76 247 6.0 10.0 0.00 0.00 0.00 66 1017.8
20190325001016 76 315 5.0 8.0 0.00 0.00 0.00 65 1017.8
20190325000016 76 315 6.0 12.0 0.00 0.00 0.00 64 1017.6
20190324235016 77 270 11.0 20.0 0.00 0.00 0.00 64 1016.8
20190324234016 77 337 12.0 18.0 0.00 0.00 0.00 64 1016.7
20190324233016 77 315 11.0 20.0 0.00 0.00 0.00 64 1016.6
20190324232016 77 292 8.0 15.0 0.00 0.00 0.00 63 1016.9
20190324231016 77 292 8.0 16.0 0.00 0.00 0.00 63 1017.1
20190324230016 78 270 12.0 19.0 0.00 0.00 0.00 61 1017.2
20190324225016 78 292 10.0 14.0 0.00 0.00 0.00 61 1017.6